Time;durP1;ratioP1;P1;durP2;ratioP2;P2;SDS_P1;SDS_P2;PMS_P1;PMS_P2;Temp;Humidity;BMP_temperature;BMP_pressure;BME280_temperature;BME280_humidity;BME280_pressure;Samples;Min_cycle;Max_cycle;Signal;HPM_P1;HPM_P2
2022/03/07 00:02:13;;;;;;;9.23;5.38;;;;;;;;;;5093449;28;20044;-63
2022/03/07 00:04:39;;;;;;;8.30;4.50;;;;;;;;;;5093526;28;20107;-64
2022/03/07 00:07:06;;;;;;;5.72;4.22;;;;;;;;;;5093370;28;20036;-64
2022/03/07 00:09:32;;;;;;;5.97;4.30;;;;;;;;;;5093749;28;20607;-64
2022/03/07 00:11:58;;;;;;;8.30;4.47;;;;;;;;;;5093674;28;20120;-64
2022/03/07 00:14:24;;;;;;;8.27;5.35;;;;;;;;;;5092947;28;20031;-64
2022/03/07 00:16:50;;;;;;;7.95;4.93;;;;;;;;;;5093201;28;20088;-64
2022/03/07 00:19:16;;;;;;;5.80;4.43;;;;;;;;;;5093231;28;20122;-64
2022/03/07 00:21:42;;;;;;;9.35;5.25;;;;;;;;;;5093551;28;20064;-64
2022/03/07 00:24:09;;;;;;;8.05;4.75;;;;;;;;;;5089894;28;20036;-64
2022/03/07 00:26:35;;;;;;;8.57;4.65;;;;;;;;;;5092934;28;20040;-64
2022/03/07 00:29:01;;;;;;;8.13;4.40;;;;;;;;;;5092928;28;20047;-64
2022/03/07 00:31:27;;;;;;;5.43;4.07;;;;;;;;;;5092625;28;20036;-64
2022/03/07 00:33:54;;;;;;;6.05;4.20;;;;;;;;;;5093065;28;20043;-64
2022/03/07 00:36:20;;;;;;;6.38;3.40;;;;;;;;;;5093435;28;20042;-64
2022/03/07 00:38:47;;;;;;;5.25;3.50;;;;;;;;;;5092617;28;20126;-64
2022/03/07 00:41:13;;;;;;;5.22;3.40;;;;;;;;;;5092575;28;20047;-64
2022/03/07 00:43:39;;;;;;;4.82;3.30;;;;;;;;;;5092714;28;20468;-64
2022/03/07 00:46:05;;;;;;;5.63;3.72;;;;;;;;;;5093062;28;20079;-64
2022/03/07 00:48:31;;;;;;;3.80;3.25;;;;;;;;;;5092538;28;20036;-63
2022/03/07 00:50:57;;;;;;;5.28;3.53;;;;;;;;;;5092904;28;20478;-64
2022/03/07 00:53:24;;;;;;;5.60;2.83;;;;;;;;;;5092737;28;20040;-64
2022/03/07 00:55:54;;;;;;;5.07;3.08;;;;;;;;;;5092843;28;20047;-64
2022/03/07 00:58:20;;;;;;;4.15;2.72;;;;;;;;;;5092482;28;20445;-64
2022/03/07 01:00:47;;;;;;;6.65;2.97;;;;;;;;;;5092023;28;20047;-64
2022/03/07 01:03:13;;;;;;;4.10;2.63;;;;;;;;;;5091813;28;20101;-64
2022/03/07 01:05:40;;;;;;;4.53;2.95;;;;;;;;;;5092537;28;20122;-64
2022/03/07 01:08:07;;;;;;;5.30;3.25;;;;;;;;;;5092193;28;20059;-64
2022/03/07 01:10:33;;;;;;;4.45;2.97;;;;;;;;;;5091855;28;20082;-64
2022/03/07 01:12:59;;;;;;;3.97;3.08;;;;;;;;;;5091745;28;20051;-64
2022/03/07 01:15:26;;;;;;;5.47;3.35;;;;;;;;;;5092752;28;20086;-63
2022/03/07 01:17:54;;;;;;;4.97;3.20;;;;;;;;;;5092767;28;20446;-64
2022/03/07 01:20:20;;;;;;;3.70;3.13;;;;;;;;;;5089563;28;20433;-64
2022/03/07 01:22:46;;;;;;;4.82;3.10;;;;;;;;;;5091035;28;20063;-64
2022/03/07 01:25:12;;;;;;;6.13;3.63;;;;;;;;;;5092252;28;20474;-64
2022/03/07 01:27:38;;;;;;;5.45;3.10;;;;;;;;;;5092053;28;20036;-63
2022/03/07 01:30:05;;;;;;;5.40;3.35;;;;;;;;;;5092128;28;20089;-63
2022/03/07 01:32:31;;;;;;;4.93;3.60;;;;;;;;;;5091819;28;20109;-64
2022/03/07 01:34:57;;;;;;;5.70;3.70;;;;;;;;;;5092896;28;20040;-64
2022/03/07 01:37:23;;;;;;;4.38;3.42;;;;;;;;;;5091573;28;20043;-64
2022/03/07 01:39:49;;;;;;;4.70;3.60;;;;;;;;;;5091688;28;20043;-64
2022/03/07 01:42:15;;;;;;;4.93;3.10;;;;;;;;;;5090159;28;20127;-64
2022/03/07 01:44:42;;;;;;;4.10;3.00;;;;;;;;;;5091830;28;20067;-64
2022/03/07 01:47:08;;;;;;;5.32;3.60;;;;;;;;;;5091554;28;20028;-64
2022/03/07 01:49:34;;;;;;;5.07;3.22;;;;;;;;;;5091714;28;20173;-64
2022/03/07 01:52:00;;;;;;;4.97;3.58;;;;;;;;;;5086379;28;20136;-64
2022/03/07 01:54:26;;;;;;;6.15;3.78;;;;;;;;;;5087344;28;20042;-64
2022/03/07 01:56:53;;;;;;;5.28;3.75;;;;;;;;;;5087845;28;20032;-64
2022/03/07 01:59:24;;;;;;;6.40;3.53;;;;;;;;;;5091279;28;20060;-64
2022/03/07 02:01:50;;;;;;;4.82;3.85;;;;;;;;;;5091515;28;20054;-64
2022/03/07 02:04:16;;;;;;;6.30;3.92;;;;;;;;;;5085173;28;20043;-64
2022/03/07 02:06:43;;;;;;;6.43;4.00;;;;;;;;;;5086835;28;20038;-64
2022/03/07 02:09:10;;;;;;;4.50;3.58;;;;;;;;;;5086325;28;20490;-64
2022/03/07 02:11:37;;;;;;;8.25;4.30;;;;;;;;;;5089591;28;20044;-64
2022/03/07 02:14:12;;;;;;;6.40;3.92;;;;;;;;;;5091260;28;20490;-65
2022/03/07 02:16:39;;;;;;;6.30;4.07;;;;;;;;;;5089311;28;20406;-64
2022/03/07 02:19:05;;;;;;;8.15;4.15;;;;;;;;;;5090835;28;20044;-63
2022/03/07 02:21:33;;;;;;;5.50;4.40;;;;;;;;;;5090418;28;20043;-64
2022/03/07 02:23:59;;;;;;;9.15;4.70;;;;;;;;;;5091395;28;20043;-64
2022/03/07 02:26:25;;;;;;;7.05;4.65;;;;;;;;;;5090408;28;20410;-64
2022/03/07 02:28:51;;;;;;;10.60;4.40;;;;;;;;;;5089788;28;20036;-64
2022/03/07 02:31:18;;;;;;;5.38;4.18;;;;;;;;;;5090490;28;20048;-64
2022/03/07 02:33:44;;;;;;;6.47;4.80;;;;;;;;;;5090497;28;20075;-64
2022/03/07 02:36:10;;;;;;;7.30;4.55;;;;;;;;;;5090489;28;20036;-64
2022/03/07 02:38:36;;;;;;;8.52;4.90;;;;;;;;;;5090864;28;20043;-63
2022/03/07 02:41:02;;;;;;;8.10;4.38;;;;;;;;;;5089674;28;20075;-64
2022/03/07 02:43:28;;;;;;;6.43;4.40;;;;;;;;;;5090392;28;20055;-64
2022/03/07 02:45:57;;;;;;;6.35;4.60;;;;;;;;;;5091144;28;20040;-64
2022/03/07 02:48:23;;;;;;;7.18;4.75;;;;;;;;;;5090026;28;20062;-64
2022/03/07 02:50:49;;;;;;;9.93;4.78;;;;;;;;;;5090268;28;20032;-64
2022/03/07 02:53:15;;;;;;;6.45;4.30;;;;;;;;;;5090611;28;20032;-64
2022/03/07 02:55:41;;;;;;;6.57;4.50;;;;;;;;;;5090571;28;20074;-64
2022/03/07 02:58:07;;;;;;;5.68;4.57;;;;;;;;;;5088916;28;20032;-64
2022/03/07 03:00:33;;;;;;;5.55;4.45;;;;;;;;;;5088356;28;20042;-64
2022/03/07 03:02:59;;;;;;;6.38;4.30;;;;;;;;;;5090536;28;20554;-64
2022/03/07 03:05:26;;;;;;;7.20;4.25;;;;;;;;;;5090111;28;20040;-64
2022/03/07 03:07:52;;;;;;;7.80;4.72;;;;;;;;;;5090633;28;20112;-63
2022/03/07 03:10:21;;;;;;;8.98;4.75;;;;;;;;;;5090374;28;20250;-63
2022/03/07 03:12:49;;;;;;;7.63;4.72;;;;;;;;;;5085968;28;20074;-64
2022/03/07 03:15:15;;;;;;;7.80;4.20;;;;;;;;;;5087099;28;20109;-64
2022/03/07 03:17:42;;;;;;;7.00;4.78;;;;;;;;;;5088914;28;20045;-64
2022/03/07 03:20:11;;;;;;;7.10;4.93;;;;;;;;;;5089685;28;20036;-64
2022/03/07 03:22:37;;;;;;;7.90;4.57;;;;;;;;;;5090020;28;20753;-64
2022/03/07 03:25:03;;;;;;;8.02;5.10;;;;;;;;;;5089902;28;20127;-64
2022/03/07 03:27:29;;;;;;;6.97;4.70;;;;;;;;;;5089956;28;20044;-64
2022/03/07 03:29:55;;;;;;;7.28;5.13;;;;;;;;;;5090101;28;20071;-64
2022/03/07 03:32:21;;;;;;;8.25;5.18;;;;;;;;;;5089871;28;20119;-64
2022/03/07 03:34:47;;;;;;;9.13;5.10;;;;;;;;;;5090299;28;21014;-63
2022/03/07 03:37:13;;;;;;;7.70;4.93;;;;;;;;;;5090146;28;20043;-64
2022/03/07 03:39:39;;;;;;;9.27;5.05;;;;;;;;;;5089950;28;20043;-63
2022/03/07 03:42:05;;;;;;;7.53;5.05;;;;;;;;;;5094353;28;20072;-63
2022/03/07 03:44:32;;;;;;;9.23;4.85;;;;;;;;;;5089738;28;20402;-64
2022/03/07 03:46:58;;;;;;;7.75;4.88;;;;;;;;;;5089769;28;20036;-64
2022/03/07 03:49:24;;;;;;;5.82;4.63;;;;;;;;;;5090253;28;20040;-63
2022/03/07 03:51:50;;;;;;;11.80;5.45;;;;;;;;;;5089202;28;20105;-63
2022/03/07 03:54:16;;;;;;;9.75;5.22;;;;;;;;;;5088500;28;20105;-64
2022/03/07 03:56:42;;;;;;;8.15;5.28;;;;;;;;;;5091683;28;20521;-64
2022/03/07 03:59:08;;;;;;;9.63;5.60;;;;;;;;;;5089219;28;20044;-64
2022/03/07 04:01:34;;;;;;;9.02;5.25;;;;;;;;;;5084874;28;20040;-64
2022/03/07 04:04:00;;;;;;;9.93;5.55;;;;;;;;;;5086421;28;20032;-64
2022/03/07 04:06:26;;;;;;;8.65;5.15;;;;;;;;;;5089684;28;20123;-64
2022/03/07 04:08:58;;;;;;;8.80;5.40;;;;;;;;;;5088454;28;20570;-64
2022/03/07 04:11:24;;;;;;;9.52;5.68;;;;;;;;;;5088881;28;20040;-63
2022/03/07 04:13:50;;;;;;;9.93;5.50;;;;;;;;;;5089379;28;20055;-64
2022/03/07 04:16:16;;;;;;;7.45;5.15;;;;;;;;;;5086460;28;20062;-64
2022/03/07 04:18:42;;;;;;;7.97;4.85;;;;;;;;;;5088029;28;20073;-64
2022/03/07 04:21:08;;;;;;;8.07;5.25;;;;;;;;;;5089493;28;20555;-64
2022/03/07 04:23:34;;;;;;;8.02;4.75;;;;;;;;;;5089775;28;20123;-64
2022/03/07 04:26:00;;;;;;;6.95;4.75;;;;;;;;;;5089126;28;20036;-63
2022/03/07 04:28:26;;;;;;;7.55;4.82;;;;;;;;;;5089085;28;20035;-63
2022/03/07 04:30:52;;;;;;;6.30;4.60;;;;;;;;;;5086059;28;20551;-64
2022/03/07 04:33:18;;;;;;;7.60;4.88;;;;;;;;;;5086775;28;20096;-64
2022/03/07 04:35:44;;;;;;;7.95;4.35;;;;;;;;;;5091953;28;20044;-63
2022/03/07 04:38:10;;;;;;;8.10;4.40;;;;;;;;;;5089452;28;20041;-64
2022/03/07 04:40:36;;;;;;;5.05;4.10;;;;;;;;;;5092088;28;20383;-63
2022/03/07 04:43:02;;;;;;;7.95;4.72;;;;;;;;;;5092109;28;20050;-63
2022/03/07 04:45:28;;;;;;;5.13;4.25;;;;;;;;;;5093207;28;20142;-64
2022/03/07 04:47:54;;;;;;;6.90;4.40;;;;;;;;;;5092649;28;20135;-64
2022/03/07 04:50:20;;;;;;;5.78;3.83;;;;;;;;;;5089333;28;20036;-63
2022/03/07 04:52:47;;;;;;;6.60;4.43;;;;;;;;;;5090484;28;20032;-63
2022/03/07 04:55:13;;;;;;;7.20;4.03;;;;;;;;;;5085391;28;20036;-64
2022/03/07 04:57:39;;;;;;;6.70;4.53;;;;;;;;;;5090821;28;20028;-64
2022/03/07 05:00:06;;;;;;;11.52;5.43;;;;;;;;;;5089021;28;20031;-64
2022/03/07 05:02:32;;;;;;;8.20;4.20;;;;;;;;;;5087290;28;20049;-63
2022/03/07 05:04:58;;;;;;;6.40;4.45;;;;;;;;;;5091140;28;20474;-64
2022/03/07 05:07:24;;;;;;;7.30;4.10;;;;;;;;;;5092664;28;20032;-63
2022/03/07 05:09:50;;;;;;;7.63;4.50;;;;;;;;;;5091308;28;20059;-63
2022/03/07 05:12:16;;;;;;;5.55;3.95;;;;;;;;;;5092667;28;20504;-64
2022/03/07 05:14:42;;;;;;;7.65;4.47;;;;;;;;;;5088926;28;20043;-64
2022/03/07 05:17:09;;;;;;;8.90;4.28;;;;;;;;;;5090071;28;20474;-64
2022/03/07 05:19:35;;;;;;;7.20;4.38;;;;;;;;;;5091378;28;20040;-65
2022/03/07 05:22:01;;;;;;;7.43;4.90;;;;;;;;;;5092313;28;20040;-63
2022/03/07 05:24:27;;;;;;;6.22;4.35;;;;;;;;;;5093272;28;20035;-63
2022/03/07 05:26:53;;;;;;;7.05;4.45;;;;;;;;;;5090027;28;20368;-62
2022/03/07 05:29:20;;;;;;;6.00;4.32;;;;;;;;;;5093233;28;20032;-63
2022/03/07 05:31:46;;;;;;;9.43;5.05;;;;;;;;;;5092084;28;20044;-62
2022/03/07 05:34:12;;;;;;;7.78;4.80;;;;;;;;;;5092197;28;20047;-63
2022/03/07 05:36:38;;;;;;;7.35;4.82;;;;;;;;;;5091134;28;20039;-63
2022/03/07 05:39:04;;;;;;;7.68;4.22;;;;;;;;;;5084677;28;20036;-62
2022/03/07 05:41:30;;;;;;;5.43;4.38;;;;;;;;;;5088221;28;20505;-63
2022/03/07 05:43:56;;;;;;;7.13;4.60;;;;;;;;;;5089040;28;20083;-63
2022/03/07 05:46:22;;;;;;;10.60;5.65;;;;;;;;;;5092011;28;20115;-63
2022/03/07 05:48:48;;;;;;;9.48;5.43;;;;;;;;;;5088551;28;20039;-63
2022/03/07 05:51:22;;;;;;;6.68;5.03;;;;;;;;;;5091518;28;20043;-63
2022/03/07 05:53:48;;;;;;;9.07;5.28;;;;;;;;;;5090417;28;20035;-63
2022/03/07 05:56:14;;;;;;;8.65;5.97;;;;;;;;;;5091457;28;20043;-62
2022/03/07 05:58:40;;;;;;;9.50;5.95;;;;;;;;;;5091292;28;20486;-63
2022/03/07 06:01:06;;;;;;;10.18;5.72;;;;;;;;;;5091844;28;20048;-63
2022/03/07 06:03:32;;;;;;;9.43;5.78;;;;;;;;;;5091696;28;20506;-63
2022/03/07 06:05:58;;;;;;;8.45;5.80;;;;;;;;;;5092525;28;20040;-63
2022/03/07 06:08:24;;;;;;;9.38;5.25;;;;;;;;;;5094203;28;20181;-63
2022/03/07 06:10:50;;;;;;;8.85;5.35;;;;;;;;;;5090938;28;20083;-63
2022/03/07 06:13:16;;;;;;;15.02;5.68;;;;;;;;;;5091262;28;20148;-63
2022/03/07 06:15:43;;;;;;;10.57;5.30;;;;;;;;;;5090922;28;20043;-63
2022/03/07 06:18:11;;;;;;;9.80;5.53;;;;;;;;;;5087390;28;20079;-64
2022/03/07 06:20:37;;;;;;;12.57;5.15;;;;;;;;;;5084590;28;20053;-63
2022/03/07 06:23:04;;;;;;;9.13;5.55;;;;;;;;;;5085801;28;20478;-64
2022/03/07 06:25:31;;;;;;;9.05;5.68;;;;;;;;;;5086942;28;20055;-63
2022/03/07 06:27:57;;;;;;;8.07;5.80;;;;;;;;;;5082701;28;20040;-63
2022/03/07 06:30:23;;;;;;;10.25;6.60;;;;;;;;;;5084440;28;20047;-62
2022/03/07 06:32:49;;;;;;;10.32;6.30;;;;;;;;;;5079953;28;20052;-63
2022/03/07 06:35:15;;;;;;;10.10;6.05;;;;;;;;;;5084937;28;20040;-64
2022/03/07 06:37:47;;;;;;;9.38;6.30;;;;;;;;;;5085746;28;20497;-64
2022/03/07 06:40:13;;;;;;;8.55;5.25;;;;;;;;;;5088877;28;20032;-64
2022/03/07 06:42:41;;;;;;;8.55;5.45;;;;;;;;;;5088375;28;20204;-64
2022/03/07 06:45:07;;;;;;;7.43;5.20;;;;;;;;;;5066974;28;20039;-64
2022/03/07 06:47:34;;;;;;;10.05;6.82;;;;;;;;;;5085719;28;20044;-64
2022/03/07 06:50:00;;;;;;;9.82;5.75;;;;;;;;;;5089358;28;20474;-64
2022/03/07 06:52:26;;;;;;;13.13;6.53;;;;;;;;;;5087990;28;20056;-64
2022/03/07 06:54:52;;;;;;;8.85;5.90;;;;;;;;;;5087723;28;20043;-64
2022/03/07 06:57:19;;;;;;;9.55;6.20;;;;;;;;;;5083304;28;20097;-65
2022/03/07 06:59:45;;;;;;;11.23;6.93;;;;;;;;;;5090507;28;20501;-64
2022/03/07 07:02:11;;;;;;;10.23;6.10;;;;;;;;;;5082667;28;20056;-64
2022/03/07 07:04:37;;;;;;;7.97;6.22;;;;;;;;;;5089480;28;20534;-63
2022/03/07 07:07:03;;;;;;;9.60;6.63;;;;;;;;;;5086858;28;20062;-64
2022/03/07 07:09:29;;;;;;;10.32;6.30;;;;;;;;;;5089320;28;20042;-64
2022/03/07 07:11:55;;;;;;;8.50;6.43;;;;;;;;;;5090413;28;20123;-64
2022/03/07 07:14:21;;;;;;;10.60;6.60;;;;;;;;;;5088004;28;20072;-65
2022/03/07 07:16:47;;;;;;;10.82;6.70;;;;;;;;;;5087438;28;20454;-63
2022/03/07 07:19:14;;;;;;;11.23;7.05;;;;;;;;;;5087038;28;20398;-65
2022/03/07 07:21:40;;;;;;;9.13;6.22;;;;;;;;;;5087429;28;20047;-64
2022/03/07 07:24:07;;;;;;;10.02;6.63;;;;;;;;;;5089468;28;20115;-64
2022/03/07 07:26:33;;;;;;;10.18;6.82;;;;;;;;;;5087303;28;20035;-64
2022/03/07 07:28:59;;;;;;;11.07;6.63;;;;;;;;;;5084314;28;20051;-64
2022/03/07 07:31:25;;;;;;;11.18;7.40;;;;;;;;;;5085545;28;20044;-64
2022/03/07 07:33:51;;;;;;;16.15;7.10;;;;;;;;;;5087822;28;20100;-64
2022/03/07 07:36:17;;;;;;;8.30;5.57;;;;;;;;;;5089812;28;20070;-64
2022/03/07 07:38:43;;;;;;;11.73;7.28;;;;;;;;;;5076218;28;20486;-64
2022/03/07 07:41:10;;;;;;;10.50;6.57;;;;;;;;;;5077660;28;20047;-64
2022/03/07 07:43:36;;;;;;;8.82;6.13;;;;;;;;;;5079462;28;20094;-64
2022/03/07 07:46:03;;;;;;;11.75;6.25;;;;;;;;;;5083768;28;20048;-64
2022/03/07 07:48:29;;;;;;;10.88;6.40;;;;;;;;;;5079585;28;20047;-65
2022/03/07 07:50:55;;;;;;;10.85;6.90;;;;;;;;;;5086740;28;20143;-64
2022/03/07 07:53:21;;;;;;;9.43;6.90;;;;;;;;;;5087225;28;20082;-64
2022/03/07 07:55:47;;;;;;;10.20;7.18;;;;;;;;;;5087743;28;20036;-64
2022/03/07 07:58:13;;;;;;;9.52;6.75;;;;;;;;;;5084248;28;20052;-65
2022/03/07 08:00:39;;;;;;;11.60;8.02;;;;;;;;;;5086930;28;20052;-64
2022/03/07 08:03:05;;;;;;;14.60;7.80;;;;;;;;;;5089709;28;20036;-64
2022/03/07 08:05:31;;;;;;;9.02;7.45;;;;;;;;;;5090210;28;20083;-65
2022/03/07 08:07:57;;;;;;;11.73;7.90;;;;;;;;;;5088486;28;20043;-64
2022/03/07 08:10:23;;;;;;;11.55;8.65;;;;;;;;;;5093075;28;20061;-64
2022/03/07 08:12:49;;;;;;;11.18;8.18;;;;;;;;;;5087403;28;20525;-64
2022/03/07 08:15:16;;;;;;;11.73;8.93;;;;;;;;;;5091633;28;20058;-65
2022/03/07 08:17:46;;;;;;;13.05;8.95;;;;;;;;;;5092174;28;20048;-64
2022/03/07 08:20:12;;;;;;;12.35;7.82;;;;;;;;;;5092906;28;20046;-64
2022/03/07 08:22:38;;;;;;;12.50;8.52;;;;;;;;;;5093703;28;20072;-64
2022/03/07 08:25:04;;;;;;;10.75;8.13;;;;;;;;;;5092432;28;20076;-64
2022/03/07 08:27:31;;;;;;;13.35;8.77;;;;;;;;;;5089401;28;20137;-64
2022/03/07 08:29:57;;;;;;;13.60;8.27;;;;;;;;;;5092244;28;20173;-64
2022/03/07 08:32:23;;;;;;;9.25;7.88;;;;;;;;;;5089943;28;20040;-64
2022/03/07 08:34:49;;;;;;;14.93;8.40;;;;;;;;;;5090844;28;20505;-65
2022/03/07 08:37:15;;;;;;;11.63;8.55;;;;;;;;;;5090051;28;20052;-64
2022/03/07 08:39:41;;;;;;;13.45;8.00;;;;;;;;;;5092145;28;20047;-64
2022/03/07 08:42:07;;;;;;;11.32;7.68;;;;;;;;;;5092573;28;20375;-64
2022/03/07 08:44:34;;;;;;;12.88;7.25;;;;;;;;;;5090404;28;20044;-64
2022/03/07 08:47:00;;;;;;;10.77;7.07;;;;;;;;;;5088087;28;20098;-65
2022/03/07 08:49:26;;;;;;;9.48;5.95;;;;;;;;;;5088250;28;20086;-65
2022/03/07 08:51:52;;;;;;;14.52;5.63;;;;;;;;;;5093262;28;20056;-64
2022/03/07 08:54:18;;;;;;;7.68;4.43;;;;;;;;;;5092440;28;20040;-64
2022/03/07 08:56:44;;;;;;;8.10;5.13;;;;;;;;;;5089165;28;20040;-64
2022/03/07 08:59:10;;;;;;;8.38;5.25;;;;;;;;;;5092661;28;20363;-64
2022/03/07 09:01:36;;;;;;;6.68;5.28;;;;;;;;;;5090576;28;20445;-64
2022/03/07 09:04:03;;;;;;;8.50;4.90;;;;;;;;;;5088809;28;20036;-63
2022/03/07 09:06:29;;;;;;;7.25;4.95;;;;;;;;;;5085711;28;20067;-64
2022/03/07 09:08:55;;;;;;;7.47;4.60;;;;;;;;;;5085542;28;20044;-64
2022/03/07 09:11:21;;;;;;;8.82;4.97;;;;;;;;;;5092807;28;20706;-65
2022/03/07 09:13:47;;;;;;;7.47;5.05;;;;;;;;;;5089448;28;20498;-65
2022/03/07 09:16:14;;;;;;;6.93;4.90;;;;;;;;;;5092337;28;20044;-64
2022/03/07 09:18:41;;;;;;;7.38;5.03;;;;;;;;;;5089524;28;20051;-65
2022/03/07 09:21:07;;;;;;;5.47;4.55;;;;;;;;;;5092190;28;20563;-65
2022/03/07 09:23:37;;;;;;;10.57;4.72;;;;;;;;;;5088696;28;20117;-64
2022/03/07 09:26:05;;;;;;;9.05;4.90;;;;;;;;;;5089869;28;20064;-64
2022/03/07 09:28:31;;;;;;;10.68;6.03;;;;;;;;;;5081967;28;20036;-64
2022/03/07 09:30:58;;;;;;;10.88;5.22;;;;;;;;;;5087228;28;20497;-65
2022/03/07 09:33:24;;;;;;;8.57;4.38;;;;;;;;;;5092065;28;20419;-65
2022/03/07 09:35:50;;;;;;;6.38;4.10;;;;;;;;;;5092223;28;20123;-64
2022/03/07 09:38:16;;;;;;;6.65;4.20;;;;;;;;;;5088332;28;20044;-65
2022/03/07 09:40:42;;;;;;;4.80;3.83;;;;;;;;;;5077232;28;20044;-64
2022/03/07 09:43:09;;;;;;;8.05;3.33;;;;;;;;;;5091752;28;20189;-64
2022/03/07 09:45:35;;;;;;;8.15;3.78;;;;;;;;;;5088369;28;20501;-65
2022/03/07 09:48:01;;;;;;;6.88;4.10;;;;;;;;;;5092046;28;20115;-64
2022/03/07 09:50:27;;;;;;;8.52;4.30;;;;;;;;;;5087080;28;20039;-65
2022/03/07 09:52:54;;;;;;;8.20;4.43;;;;;;;;;;5091706;28;20036;-65
2022/03/07 09:55:21;;;;;;;8.82;4.13;;;;;;;;;;5090977;28;20051;-64
2022/03/07 09:57:47;;;;;;;6.43;4.65;;;;;;;;;;5090736;28;20038;-65
2022/03/07 10:00:14;;;;;;;4.75;3.88;;;;;;;;;;5089676;28;20032;-65
2022/03/07 10:02:40;;;;;;;6.78;3.95;;;;;;;;;;5091945;28;20090;-65
2022/03/07 10:05:06;;;;;;;7.35;3.70;;;;;;;;;;5090500;28;20044;-65
2022/03/07 10:07:43;;;;;;;5.45;4.10;;;;;;;;;;5089706;28;20043;-64
2022/03/07 10:10:09;;;;;;;7.25;3.88;;;;;;;;;;5091888;28;20122;-62
2022/03/07 10:12:44;;;;;;;5.28;3.20;;;;;;;;;;5089793;28;20036;-62
2022/03/07 10:15:13;;;;;;;6.32;3.47;;;;;;;;;;5089559;28;20502;-62
2022/03/07 10:17:40;;;;;;;6.63;3.00;;;;;;;;;;5089581;28;20098;-64
2022/03/07 10:20:07;;;;;;;4.43;2.83;;;;;;;;;;5090417;28;20052;-65
2022/03/07 10:22:33;;;;;;;5.00;3.00;;;;;;;;;;5091389;28;20039;-64
2022/03/07 10:25:05;;;;;;;4.18;3.13;;;9.50;99.90;;;;;;5091125;28;20474;-65
2022/03/07 10:27:33;;;;;;;6.88;3.63;;;9.50;99.90;;;;;;5087343;28;20032;-64
2022/03/07 10:29:59;;;;;;;5.50;3.42;;;;;;;;;;5086160;28;20114;-65
2022/03/07 10:32:25;;;;;;;7.95;2.72;;;;;;;;;;5090690;28;20082;-65
2022/03/07 10:34:51;;;;;;;5.68;3.15;;;;;;;;;;5083455;28;20040;-65
2022/03/07 10:37:17;;;;;;;4.53;3.45;;;;;;;;;;5090547;28;20036;-64
2022/03/07 10:39:52;;;;;;;4.13;2.67;;;;;;;;;;5088845;28;20143;-65
2022/03/07 10:42:19;;;;;;;4.35;2.50;;;9.90;99.90;;;;;;5089923;28;20036;-65
2022/03/07 10:44:46;;;;;;;5.60;2.80;;;;;;;;;;5089268;28;20060;-65
2022/03/07 10:47:17;;;;;;;6.25;2.90;;;;;;;;;;5089738;28;20474;-65
2022/03/07 10:49:47;;;;;;;5.22;2.30;;;;;;;;;;5088755;28;20466;-64
2022/03/07 10:52:13;;;;;;;5.05;2.53;;;;;;;;;;5087864;28;20122;-65
2022/03/07 10:54:39;;;;;;;4.45;2.53;;;;;;;;;;5085586;28;20069;-65
2022/03/07 10:57:07;;;;;;;6.22;2.80;;;;;;;;;;5090915;28;20085;-64
2022/03/07 10:59:34;;;;;;;3.13;2.63;;;;;;;;;;5090321;28;20052;-65
2022/03/07 11:02:06;;;;;;;4.07;2.65;;;;;;;;;;5084950;28;20048;-65
2022/03/07 11:04:32;;;;;;;6.63;3.22;;;;;;;;;;5089837;28;20232;-64
2022/03/07 11:06:58;;;;;;;4.50;2.63;;;;;;;;;;5085600;28;20050;-63
2022/03/07 11:09:24;;;;;;;3.97;2.50;;;;;;;;;;5090061;28;20043;-66
2022/03/07 11:11:51;;;;;;;6.35;3.40;;;;;;;;;;5089770;28;20040;-65
2022/03/07 11:14:17;;;;;;;5.20;2.60;;;;;;;;;;5089559;28;20040;-65
2022/03/07 11:16:45;;;;;;;6.65;2.60;;;12.00;99.90;;;;;;5088447;28;20067;-65
2022/03/07 11:19:12;;;;;;;6.07;2.85;;;;;;;;;;5089698;28;20046;-65
2022/03/07 11:21:41;;;;;;;7.65;2.88;;;;;;;;;;5090504;28;20116;-64
2022/03/07 11:24:07;;;;;;;4.95;2.75;;;;;;;;;;5090077;28;20410;-65
2022/03/07 11:26:34;;;;;;;5.00;2.70;;;;;;;;;;5090312;28;20494;-66
2022/03/07 11:29:00;;;;;;;3.75;2.75;;;;;;;;;;5089269;28;20066;-63
2022/03/07 11:31:27;;;;;;;6.43;2.50;;;;;;;;;;5090560;28;20048;-63
2022/03/07 11:33:54;;;;;;;4.90;2.63;;;;;;;;;;5090351;28;20032;-65
2022/03/07 11:36:22;;;;;;;5.20;3.20;;;13.50;99.90;;;;;;5090602;28;20036;-65
2022/03/07 11:38:59;;;;;;;7.35;3.10;;;13.70;99.90;;;;;;5089339;28;20028;-64
2022/03/07 11:41:36;;;;;;;4.80;2.70;;;14.10;99.90;;;;;;5090280;28;20043;-63
2022/03/07 11:44:14;;;;;;;4.85;2.30;;;;;;;;;;5094980;28;20044;-63
2022/03/07 11:46:47;;;;;;;6.43;2.70;;;;;;;;;;5096824;28;20040;-63
2022/03/07 11:49:23;;;;;;;4.05;2.20;;;;;;;;;;5096832;28;20036;-62
2022/03/07 11:51:57;;;;;;;3.83;2.20;;;15.40;99.90;;;;;;5091853;28;20501;-63
2022/03/07 11:54:23;;;;;;;4.32;2.08;;;;;;;;;;5095682;28;20040;-62
2022/03/07 11:56:49;;;;;;;4.07;2.28;;;;;;;;;;5092767;28;20050;-63
2022/03/07 11:59:16;;;;;;;3.28;2.13;;;;;;;;;;5093298;28;20036;-64
2022/03/07 12:01:52;;;;;;;3.88;2.47;;;;;;;;;;5090036;28;20097;-63
2022/03/07 12:04:18;;;;;;;3.42;2.65;;;;;;;;;;5092910;28;20129;-63
2022/03/07 12:06:49;;;;;;;4.32;2.30;;;;;;;;;;5092044;28;20036;-64
2022/03/07 12:09:24;;;;;;;2.50;2.00;;;15.30;99.90;;;;;;5089334;28;20040;-64
2022/03/07 12:11:58;;;;;;;2.97;1.38;;;15.40;99.90;;;;;;5089965;28;20177;-64
2022/03/07 12:14:35;;;;;;;3.20;1.58;;;15.10;99.90;;;;;;5094743;28;20032;-63
2022/03/07 12:17:10;;;;;;;3.50;1.60;;;15.00;99.90;;;;;;5092170;28;20043;-63
2022/03/07 12:19:36;;;;;;;4.22;1.88;;;;;;;;;;5094797;28;20032;-63
2022/03/07 12:22:16;;;;;;;3.15;1.60;;;15.00;99.90;;;;;;5094448;28;20044;-63
2022/03/07 12:24:42;;;;;;;3.25;1.70;;;;;;;;;;5092229;28;20169;-63
2022/03/07 12:27:09;;;;;;;4.28;2.03;;;;;;;;;;5095160;28;20531;-63
2022/03/07 12:29:39;;;;;;;2.67;1.10;;;;;;;;;;5094296;28;20039;-63
2022/03/07 12:32:06;;;;;;;3.22;1.30;;;;;;;;;;5095915;28;20051;-64
2022/03/07 12:34:34;;;;;;;2.67;1.33;;;15.90;99.90;;;;;;5095498;28;20044;-64
2022/03/07 12:37:00;;;;;;;1.70;1.27;;;;;;;;;;5095708;28;20028;-64
2022/03/07 12:39:50;;;;;;;2.95;1.40;;;16.00;98.50;;;;;;5094511;28;20032;-63
2022/03/07 12:42:17;;;;;;;2.00;1.30;;;;;;;;;;5091953;28;20160;-64
2022/03/07 12:44:43;;;;;;;2.35;1.30;;;;;;;;;;5095757;28;20062;-64
2022/03/07 12:47:11;;;;;;;1.67;1.00;;;16.00;97.70;;;;;;5096023;28;20542;-63
2022/03/07 12:49:38;;;;;;;1.10;0.85;;;;;;;;;;5094728;28;20093;-63
2022/03/07 12:52:06;;;;;;;3.13;1.50;;;16.50;96.90;;;;;;5096106;28;20119;-64
2022/03/07 12:54:35;;;;;;;1.80;1.20;;;16.30;96.60;;;;;;5094101;28;20038;-62
2022/03/07 12:57:02;;;;;;;1.73;1.17;;;;;;;;;;5092149;28;20048;-64
2022/03/07 12:59:30;;;;;;;2.15;1.17;;;16.20;96.50;;;;;;5093205;28;20474;-63
2022/03/07 13:01:56;;;;;;;2.95;1.40;;;16.20;95.80;;;;;;5092742;28;20470;-63
2022/03/07 13:04:26;;;;;;;1.30;1.20;;;16.60;95.90;;;;;;5093003;28;20028;-63
2022/03/07 13:06:56;;;;;;;2.35;1.40;;;;;;;;;;5092156;28;20028;-63
2022/03/07 13:09:34;;;;;;;2.80;1.05;;;16.00;95.40;;;;;;5092429;28;20112;-63
2022/03/07 13:12:06;;;;;;;2.85;1.40;;;15.80;95.00;;;;;;5090845;28;20101;-64
2022/03/07 13:14:34;;;;;;;2.40;1.20;;;15.80;94.60;;;;;;5092469;28;20401;-63
2022/03/07 13:17:12;;;;;;;4.28;1.40;;;;;;;;;;5091867;28;20040;-63
2022/03/07 13:19:38;;;;;;;2.55;1.40;;;;;;;;;;5091440;28;20040;-64
2022/03/07 13:22:06;;;;;;;2.10;1.25;;;15.50;94.30;;;;;;5091458;28;20046;-63
2022/03/07 13:24:32;;;;;;;4.10;1.42;;;;;;;;;;5091478;28;20032;-63
2022/03/07 13:27:09;;;;;;;2.72;1.55;;;;;;;;;;5092176;28;20040;-63
2022/03/07 13:29:37;;;;;;;2.25;1.60;;;15.40;94.50;;;;;;5092540;28;20483;-63
2022/03/07 13:32:09;;;;;;;2.47;1.50;;;;;;;;;;5090202;28;20032;-63
2022/03/07 13:34:44;;;;;;;2.75;1.83;;;;;;;;;;5091577;28;20032;-64
2022/03/07 13:37:11;;;;;;;3.78;1.70;;;;;;;;;;5090045;28;20398;-63
2022/03/07 13:39:38;;;;;;;6.05;4.75;;;;;;;;;;5088764;28;20153;-64
2022/03/07 13:42:07;;;;;;;2.97;2.22;;;;;;;;;;5090956;28;20059;-63
2022/03/07 13:44:35;;;;;;;3.80;1.63;;;;;;;;;;5091908;28;20047;-63
2022/03/07 13:47:04;;;;;;;2.53;1.80;;;;;;;;;;5091751;28;20436;-63
2022/03/07 13:49:50;;;;;;;2.90;2.00;;;18.30;93.60;;;;;;5091268;28;20078;-63
2022/03/07 13:52:17;;;;;;;2.70;1.70;;;19.50;92.80;;;;;;5091409;28;20040;-64
2022/03/07 13:54:44;;;;;;;2.10;1.75;;;;;;;;;;5092288;28;20044;-63
2022/03/07 13:57:10;;;;;;;3.47;1.65;;;;;;;;;;5091700;28;20490;-64
2022/03/07 13:59:36;;;;;;;3.05;1.65;;;;;;;;;;5091906;28;20086;-64
2022/03/07 14:02:15;;;;;;;2.90;1.70;;;;;;;;;;5091499;28;20452;-64
2022/03/07 14:04:52;;;;;;;4.25;2.13;;;;;;;;;;5088037;28;20055;-64
2022/03/07 14:07:23;;;;;;;2.83;1.90;;;22.60;83.90;;;;;;5088525;28;20481;-64
2022/03/07 14:09:52;;;;;;;3.17;2.15;;;;;;;;;;5091215;28;20031;-64
2022/03/07 14:12:45;;;;;;;2.40;1.63;;;;;;;;;;5091391;28;20679;-64
2022/03/07 14:15:11;;;;;;;2.80;1.92;;;;;;;;;;5085454;28;20494;-64
2022/03/07 14:17:39;;;;;;;1.92;1.60;;;21.30;83.90;;;;;;5091058;28;20050;-64
2022/03/07 14:20:10;;;;;;;2.40;1.73;;;;;;;;;;5090539;28;20064;-64
2022/03/07 14:22:36;;;;;;;3.92;1.73;;;;;;;;;;5089783;28;20490;-65
2022/03/07 14:25:03;;;;;;;2.50;1.80;;;;;;;;;;5090827;28;20085;-66
2022/03/07 14:27:34;;;;;;;1.88;1.55;;;20.60;83.00;;;;;;5091113;28;20075;-66
2022/03/07 14:30:03;;;;;;;3.17;1.90;;;20.90;83.20;;;;;;5090915;28;20106;-65